createdAt,value
2017-06-28T00:00:14.533Z,83.04
2017-06-28T00:00:55.029Z,83.04
2017-06-28T00:01:36.339Z,82.75
2017-06-28T00:02:16.835Z,83.14
2017-06-28T00:02:57.328Z,82.94
2017-06-28T00:03:37.818Z,83.04
2017-06-28T00:04:18.299Z,82.65
2017-06-28T00:04:58.800Z,82.26
2017-06-28T00:05:39.295Z,82.84
2017-06-28T00:06:19.790Z,82.89
2017-06-28T00:07:00.287Z,82.69
2017-06-28T00:07:40.771Z,82.56
2017-06-28T00:08:21.267Z,82.56
2017-06-28T00:09:01.764Z,82.65
2017-06-28T00:09:42.252Z,82.84
2017-06-28T00:10:22.747Z,82.56
2017-06-28T00:11:03.241Z,82.75
2017-06-28T00:11:43.726Z,82.75
2017-06-28T00:12:24.223Z,82.26
2017-06-28T00:13:04.716Z,82.65
2017-06-28T00:13:45.199Z,82.84
2017-06-28T00:14:25.669Z,82.75
2017-06-28T00:15:06.158Z,82.75
2017-06-28T00:15:46.634Z,82.56
2017-06-28T00:16:27.138Z,82.46
2017-06-28T00:17:07.612Z,82.17
2017-06-28T00:17:48.076Z,82.84
2017-06-28T00:18:28.557Z,82.17
2017-06-28T00:19:09.049Z,82.46
2017-06-28T00:19:49.538Z,81.98
2017-06-28T00:20:30.539Z,82.31
2017-06-28T00:21:11.038Z,81.73
2017-06-28T00:21:51.529Z,82.17
2017-06-28T00:22:32.012Z,82.02
2017-06-28T00:23:12.510Z,82.17
2017-06-28T00:23:53.005Z,82.46
2017-06-28T00:24:33.502Z,82.26
2017-06-28T00:25:14.001Z,82.17
2017-06-28T00:25:54.495Z,81.98
2017-06-28T00:26:34.998Z,82.17
2017-06-28T00:27:15.496Z,81.98
2017-06-28T00:27:55.990Z,82.17
2017-06-28T00:28:36.483Z,82.17
2017-06-28T00:29:16.978Z,81.59
2017-06-28T00:29:57.463Z,81.63
2017-06-28T00:30:37.956Z,81.44
2017-06-28T00:31:18.448Z,81.34
2017-06-28T00:31:58.907Z,81.44
2017-06-28T00:32:39.356Z,81.49
2017-06-28T00:33:19.821Z,81.68
2017-06-28T00:34:00.292Z,81.59
2017-06-28T00:34:41.715Z,81.68
2017-06-28T00:36:39.328Z,82.31
2017-06-28T00:37:19.814Z,82.46
2017-06-28T00:38:00.303Z,82.56
2017-06-28T00:38:40.796Z,83.33
2017-06-28T00:39:21.280Z,83.62
2017-06-28T00:40:01.779Z,83.39
2017-06-28T00:40:42.261Z,84.06
2017-06-28T00:41:22.754Z,84.44
2017-06-28T00:42:03.233Z,85.12
2017-06-28T00:42:43.695Z,85.5
2017-06-28T00:43:24.154Z,85.5
2017-06-28T00:44:04.597Z,85.12
2017-06-28T00:44:45.059Z,85.02
2017-06-28T00:45:25.540Z,85.22
2017-06-28T00:46:06.041Z,85.22
2017-06-28T00:46:46.530Z,85.12
2017-06-28T00:47:27.033Z,84.64
2017-06-28T00:48:07.521Z,85.02
2017-06-28T00:48:48.895Z,84.16
2017-06-28T00:49:29.385Z,85.02
2017-06-28T00:50:09.883Z,84.74
2017-06-28T00:50:50.376Z,85.22
2017-06-28T00:51:30.866Z,84.83
2017-06-28T00:53:28.491Z,84.2
2017-06-28T00:54:08.989Z,83.87
2017-06-28T00:54:49.482Z,83.52
2017-06-28T00:55:29.962Z,84.1
2017-06-28T00:56:10.463Z,83.62
2017-06-28T00:56:50.943Z,83.62
2017-06-28T00:57:32.198Z,83.81
2017-06-28T00:58:12.694Z,83.91
2017-06-28T00:58:53.186Z,83.52
2017-06-28T00:59:33.674Z,83.52
2017-06-28T01:00:14.179Z,82.84
2017-06-28T01:00:54.697Z,80.14
2017-06-28T01:01:35.182Z,79.12
2017-06-28T01:02:15.656Z,78.02
2017-06-28T01:02:56.146Z,79.66
2017-06-28T01:03:36.644Z,79.89
2017-06-28T01:04:17.135Z,78.89
2017-06-28T01:04:57.636Z,79.66
2017-06-28T01:05:38.102Z,79.52
2017-06-28T01:06:18.552Z,81.74
2017-06-28T01:06:59.047Z,81.74
2017-06-28T01:07:39.529Z,80.87
2017-06-28T01:08:20.027Z,80
2017-06-28T01:09:00.511Z,81.41
2017-06-28T01:09:41.032Z,79.68
2017-06-28T01:10:21.514Z,80.64
2017-06-28T01:11:02.009Z,81.9
2017-06-28T01:11:42.496Z,80.79
2017-06-28T01:12:22.967Z,81.66
2017-06-28T01:13:03.394Z,80.89
2017-06-28T01:13:43.865Z,81.18
2017-06-28T01:14:24.383Z,80.79
2017-06-28T01:15:04.889Z,81.04
2017-06-28T01:15:45.381Z,81.24
2017-06-28T01:16:25.870Z,80.56
2017-06-28T01:17:06.362Z,81.24
2017-06-28T01:17:46.856Z,80.66
2017-06-28T01:18:27.369Z,81.81
2017-06-28T01:19:07.843Z,81.91
2017-06-28T01:19:48.335Z,82.35
2017-06-28T01:20:28.823Z,82.45
2017-06-28T01:21:09.320Z,82.74
2017-06-28T01:21:49.815Z,81.96
2017-06-28T01:22:30.301Z,82.83
2017-06-28T01:23:10.800Z,83.99
2017-06-28T01:23:51.281Z,84.14
2017-06-28T01:24:31.771Z,84.43
2017-06-28T01:25:12.265Z,84.91
2017-06-28T01:25:52.768Z,85.3
2017-06-28T01:26:33.259Z,86.65
2017-06-28T01:27:13.744Z,86.26
2017-06-28T01:27:54.255Z,86.74
2017-06-28T01:28:34.733Z,87.7
2017-06-28T01:29:15.222Z,88.47
2017-06-28T01:29:55.719Z,89.43
2017-06-28T01:30:36.211Z,89.72
2017-06-28T01:31:16.705Z,89.92
2017-06-28T01:31:57.200Z,89.34
2017-06-28T01:32:37.676Z,89.2
2017-06-28T01:34:55.496Z,91.99
2017-06-28T01:35:35.988Z,92.38
2017-06-28T01:36:16.477Z,92.66
2017-06-28T01:36:56.978Z,93.24
2017-06-28T01:37:37.476Z,94.97
2017-06-28T01:38:17.966Z,94.01
2017-06-28T01:38:58.456Z,94.15
2017-06-28T01:39:38.940Z,94.83
2017-06-28T01:40:19.421Z,96.08
2017-06-28T01:40:59.917Z,96.27
2017-06-28T01:41:40.409Z,96.47
2017-06-28T01:42:20.903Z,95.89
2017-06-28T01:43:01.394Z,96.37
2017-06-28T01:43:41.885Z,96.47
2017-06-28T01:44:22.375Z,97.04
2017-06-28T01:45:02.842Z,97.14
2017-06-28T01:46:50.678Z,98.34
2017-06-28T01:47:31.042Z,74.6
2017-06-28T01:48:11.571Z,76.86
2017-06-28T01:50:04.939Z,73.03
2017-06-28T01:50:45.312Z,71.94
2017-06-28T01:51:25.782Z,72.32
2017-06-28T01:52:07.877Z,72.13
2017-06-28T01:52:48.307Z,72.52
2017-06-28T01:54:46.332Z,83.29
2017-06-28T01:55:26.704Z,84.83
2017-06-28T01:56:07.147Z,91.08
2017-06-28T01:57:54.733Z,93.29
2017-06-28T01:58:35.107Z,93.58
2017-06-28T01:59:15.575Z,93.29
2017-06-28T01:59:56.009Z,93.58
2017-06-28T02:00:36.472Z,93.87
2017-06-28T02:01:16.943Z,93.29
2017-06-28T02:01:57.390Z,93.87
2017-06-28T02:02:37.863Z,93.48
2017-06-28T02:03:18.303Z,93.58
2017-06-28T02:03:58.725Z,93.87
2017-06-28T02:04:39.192Z,93.58
2017-06-28T02:05:19.633Z,93.87
2017-06-28T02:06:00.094Z,93.29
2017-06-28T02:06:40.520Z,93.29
2017-06-28T02:07:20.979Z,93.58
2017-06-28T02:08:01.442Z,93.68
2017-06-28T02:08:41.881Z,94.25
2017-06-28T02:09:22.330Z,93.68
2017-06-28T02:10:02.784Z,94.35
2017-06-28T02:10:43.258Z,95.31
2017-06-28T02:11:23.672Z,94.73
2017-06-28T02:12:04.169Z,95.02
2017-06-28T02:12:44.634Z,94.35
2017-06-28T02:13:25.074Z,94.64
2017-06-28T02:14:05.550Z,95.02
2017-06-28T02:14:46.010Z,95.02
2017-06-28T02:15:26.474Z,95.02
2017-06-28T02:16:06.894Z,95.02
2017-06-28T02:16:47.347Z,94.45
2017-06-28T02:17:27.826Z,93.87
2017-06-28T02:18:08.274Z,94.06
2017-06-28T02:18:48.748Z,94.64
2017-06-28T02:19:29.210Z,94.54
2017-06-28T02:20:09.696Z,94.54
2017-06-28T02:21:57.221Z,94.64
2017-06-28T02:22:37.706Z,94.73
2017-06-28T02:23:18.159Z,94.83
2017-06-28T02:23:58.626Z,93.87
2017-06-28T02:24:39.118Z,93.87
2017-06-28T02:25:19.596Z,94.83
2017-06-28T02:26:00.096Z,94.83
2017-06-28T02:26:40.590Z,93.96
2017-06-28T02:27:21.082Z,93.96
2017-06-28T02:28:01.550Z,93.87
2017-06-28T02:28:42.045Z,93.77
2017-06-28T02:29:22.534Z,94.83
2017-06-28T02:30:03.021Z,94.73
2017-06-28T02:30:43.516Z,94.4
2017-06-28T02:31:24.002Z,94.49
2017-06-28T02:32:04.488Z,94.2
2017-06-28T02:32:44.973Z,94.3
2017-06-28T02:33:25.438Z,94.3
2017-06-28T02:34:05.860Z,93.91
2017-06-28T02:35:59.283Z,93.53
2017-06-28T02:36:39.666Z,93.72
2017-06-28T02:37:20.135Z,93.43
2017-06-28T02:38:00.594Z,92.66
2017-06-28T02:38:41.031Z,93.72
2017-06-28T02:39:21.494Z,93.53
2017-06-28T02:40:01.910Z,93.72
2017-06-28T02:41:55.257Z,93.91
2017-06-28T02:42:35.409Z,93.53
2017-06-28T02:43:15.878Z,93.82
2017-06-28T02:43:56.348Z,93.53
2017-06-28T02:44:36.808Z,92.52
2017-06-28T02:45:17.264Z,93.33
2017-06-28T02:47:30.932Z,93.53
2017-06-28T02:48:11.287Z,93.29
2017-06-28T02:48:51.722Z,93.29
2017-06-28T02:49:32.193Z,93.91
2017-06-28T02:50:12.657Z,93.82
2017-06-28T02:52:05.682Z,94.59
2017-06-28T02:52:46.041Z,94.4
2017-06-28T02:54:59.896Z,93.43
2017-06-28T02:55:40.157Z,93.82
2017-06-28T02:56:20.603Z,93.82
2017-06-28T02:57:01.061Z,93.91
2017-06-28T02:57:41.559Z,94.01
2017-06-28T02:58:21.935Z,93.82
2017-06-28T02:59:02.373Z,94.59
2017-06-28T02:59:42.846Z,93.72
2017-06-28T03:00:23.271Z,93.53
2017-06-28T03:01:03.726Z,93.72
2017-06-28T03:01:44.222Z,94.2
2017-06-28T03:02:24.667Z,94.4
2017-06-28T03:03:05.144Z,94.97
2017-06-28T03:03:45.829Z,94.2
2017-06-28T03:04:26.194Z,93.62
2017-06-28T03:05:06.643Z,93.72
2017-06-28T03:05:47.174Z,93.62
2017-06-28T03:06:27.684Z,93.24
2017-06-28T03:07:08.084Z,93.72
2017-06-28T03:07:48.558Z,94.68
2017-06-28T03:08:29.093Z,93.77
2017-06-28T03:09:09.492Z,93.96
2017-06-28T03:09:49.965Z,93.57
2017-06-28T03:10:30.425Z,93.87
2017-06-28T03:11:10.834Z,93.67
2017-06-28T03:11:51.337Z,94.68
2017-06-28T03:12:31.791Z,93.82
2017-06-28T03:13:12.256Z,93.33
2017-06-28T03:13:52.732Z,93.29
2017-06-28T03:14:33.224Z,93.72
2017-06-28T03:15:13.870Z,94.4
2017-06-28T03:15:54.318Z,93.87
2017-06-28T03:16:34.760Z,94.25
2017-06-28T03:17:15.174Z,93.77
2017-06-28T03:17:55.637Z,93.87
2017-06-28T03:18:36.118Z,93.77
2017-06-28T03:19:16.565Z,94.44
2017-06-28T03:19:56.994Z,94.54
2017-06-28T03:20:37.499Z,93.38
2017-06-28T03:21:17.904Z,93.57
2017-06-28T03:21:58.355Z,93.57
2017-06-28T03:22:38.762Z,93.96
2017-06-28T03:23:19.249Z,92.42
2017-06-28T03:23:59.772Z,93.57
2017-06-28T03:24:40.205Z,93.29
2017-06-28T03:25:20.726Z,93.29
2017-06-28T03:26:01.176Z,92.85
2017-06-28T03:26:41.644Z,93.33
2017-06-28T03:27:22.032Z,93.87
2017-06-28T03:28:02.519Z,93.87
2017-06-28T03:28:43.011Z,94.44
2017-06-28T03:29:23.395Z,93.82
2017-06-28T03:30:03.853Z,93.87
2017-06-28T03:30:44.280Z,93.67
2017-06-28T03:31:24.694Z,94.44
2017-06-28T03:32:05.152Z,94.06
2017-06-28T03:32:45.602Z,93.72
2017-06-28T03:33:26.214Z,94.64
2017-06-28T03:34:06.624Z,94.92
2017-06-28T03:34:47.171Z,95.12
2017-06-28T03:35:27.579Z,94.82
2017-06-28T03:36:08.046Z,94.73
2017-06-28T03:36:48.494Z,94.34
2017-06-28T03:37:28.985Z,94.54
2017-06-28T03:38:09.409Z,94.54
2017-06-28T03:38:49.983Z,94.54
2017-06-28T03:39:30.380Z,94.44
2017-06-28T03:40:10.824Z,94.73
2017-06-28T03:42:28.706Z,95.02
2017-06-28T03:43:09.220Z,94.54
2017-06-28T03:43:49.709Z,94.44
2017-06-28T03:44:30.183Z,95.02
2017-06-28T03:45:10.681Z,94.54
2017-06-28T03:45:51.172Z,93.62
2017-06-28T03:46:31.656Z,94.59
2017-06-28T03:47:12.158Z,94.64
2017-06-28T03:47:52.673Z,94.92
2017-06-28T03:48:33.175Z,94.92
2017-06-28T03:49:13.698Z,95.02
2017-06-28T03:49:54.200Z,95.4
2017-06-28T03:50:34.691Z,95.69
2017-06-28T03:51:15.173Z,94.82
2017-06-28T03:51:55.661Z,94.44
2017-06-28T03:52:36.138Z,94.73
2017-06-28T03:53:16.645Z,94.15
2017-06-28T03:53:57.111Z,94.73
2017-06-28T03:54:37.609Z,95.12
2017-06-28T03:55:18.101Z,94.06
2017-06-28T03:55:58.593Z,93.48
2017-06-28T03:56:39.092Z,93.77
2017-06-28T03:57:19.549Z,93.57
2017-06-28T03:58:00.024Z,93.87
2017-06-28T03:58:40.475Z,93.96
2017-06-28T03:59:20.893Z,93.09
2017-06-28T04:00:01.336Z,93.67
2017-06-28T04:01:58.930Z,94.64
2017-06-28T04:02:39.426Z,94.44
2017-06-28T04:03:19.912Z,93.67
2017-06-28T04:04:00.404Z,94.64
2017-06-28T04:04:40.901Z,94.34
2017-06-28T04:05:21.390Z,93.96
2017-06-28T04:06:01.886Z,93.57
2017-06-28T04:06:42.373Z,92.61
2017-06-28T04:07:22.866Z,93.96
2017-06-28T04:08:03.352Z,93.57
2017-06-28T04:08:43.850Z,93.48
2017-06-28T04:09:24.350Z,93.87
2017-06-28T04:10:04.834Z,93.96
2017-06-28T04:10:45.293Z,93.38
2017-06-28T04:11:25.785Z,93.87
2017-06-28T04:12:06.275Z,93
2017-06-28T04:12:46.757Z,93.19
2017-06-28T04:13:27.263Z,93.96
2017-06-28T04:14:07.747Z,93.77
2017-06-28T04:14:48.240Z,94.82
2017-06-28T04:15:28.740Z,94.92
2017-06-28T04:16:09.222Z,93.87
2017-06-28T04:16:49.686Z,93.77
2017-06-28T04:17:30.152Z,94.64
2017-06-28T04:18:10.611Z,94.15
2017-06-28T04:18:51.064Z,94.44
2017-06-28T04:19:31.519Z,93.53
2017-06-28T04:20:11.965Z,94.25
2017-06-28T04:20:52.433Z,95.02
2017-06-28T04:21:32.879Z,94.44
2017-06-28T04:23:51.070Z,95.12
2017-06-28T04:24:31.502Z,94.06
2017-06-28T04:25:11.941Z,94.82
2017-06-28T04:25:52.411Z,95.84
2017-06-28T04:26:32.875Z,95.12
2017-06-28T04:27:13.271Z,95.79
2017-06-28T04:27:53.713Z,95.79
2017-06-28T04:28:34.167Z,95.02
2017-06-28T04:29:14.603Z,95.69
2017-06-28T04:29:55.060Z,94.97
2017-06-28T04:30:35.527Z,95.21
2017-06-28T04:31:15.988Z,95.69
2017-06-28T04:31:56.446Z,95.79
2017-06-28T04:32:36.875Z,96.27
2017-06-28T04:33:17.333Z,95.4
2017-06-28T04:33:57.842Z,96.66
2017-06-28T04:36:15.959Z,95.89
2017-06-28T04:36:56.382Z,95.5
2017-06-28T04:37:36.821Z,95.65
2017-06-28T04:38:17.279Z,96.03
2017-06-28T04:38:57.716Z,96.37
2017-06-28T04:39:38.204Z,95.65
2017-06-28T04:40:18.784Z,95.79
2017-06-28T04:40:59.269Z,96.27
2017-06-28T04:41:39.712Z,96.22
2017-06-28T04:42:20.146Z,95.98
2017-06-28T04:43:00.601Z,95.89
2017-06-28T04:43:41.040Z,95.94
2017-06-28T04:44:21.505Z,95.98
2017-06-28T04:46:19.509Z,96.61
2017-06-28T04:46:59.901Z,97.04
2017-06-28T04:47:40.386Z,96.22
2017-06-28T04:49:58.215Z,95.74
2017-06-28T04:50:38.624Z,95.89
2017-06-28T04:51:19.955Z,96.17
2017-06-28T04:52:00.417Z,95.69
2017-06-28T04:52:40.900Z,95.65
2017-06-28T04:53:21.346Z,95.89
2017-06-28T04:54:01.800Z,95.98
2017-06-28T04:54:42.291Z,96.12
2017-06-28T04:55:22.759Z,95.84
2017-06-28T04:56:03.273Z,95.69
2017-06-28T04:56:43.748Z,95.65
2017-06-28T04:57:24.209Z,95.74
2017-06-28T04:58:04.633Z,95.84
2017-06-28T04:58:45.073Z,95.65
2017-06-28T04:59:25.546Z,95.84
2017-06-28T05:00:06.020Z,95.94
2017-06-28T05:00:46.435Z,95.4
2017-06-28T05:01:26.879Z,95.65
2017-06-28T05:02:07.316Z,96.17
2017-06-28T05:02:47.767Z,95.98
2017-06-28T05:05:00.538Z,96.17
2017-06-28T05:05:40.936Z,96.7
2017-06-28T05:06:21.424Z,96.94
2017-06-28T05:07:01.900Z,96.75
2017-06-28T05:07:42.355Z,96.66
2017-06-28T05:08:22.806Z,97.04
2017-06-28T05:09:03.238Z,96.51
2017-06-28T05:09:43.729Z,96.17
2017-06-28T05:10:24.184Z,95.69
2017-06-28T05:11:04.635Z,96.08
2017-06-28T05:11:45.106Z,96.27
2017-06-28T05:12:25.526Z,96.75
2017-06-28T05:13:05.985Z,96.56
2017-06-28T05:13:46.448Z,96.85
2017-06-28T05:16:04.363Z,95.89
2017-06-28T05:16:44.718Z,95.84
2017-06-28T05:17:25.183Z,96.03
2017-06-28T05:18:05.645Z,95.6
2017-06-28T05:18:46.157Z,96.46
2017-06-28T05:19:26.644Z,96.42
2017-06-28T05:20:07.056Z,95.89
2017-06-28T05:20:47.505Z,96.37
2017-06-28T05:22:40.138Z,96.12
2017-06-28T05:23:20.574Z,95.07
2017-06-28T05:24:01.050Z,95.45
2017-06-28T05:24:41.533Z,95.5
2017-06-28T05:25:22.019Z,95.69
2017-06-28T05:26:02.507Z,96.94
2017-06-28T05:26:42.984Z,96.08
2017-06-28T05:27:23.471Z,96.03
2017-06-28T05:28:03.940Z,96.56
2017-06-28T05:28:44.444Z,96.46
2017-06-28T05:29:24.894Z,96.66
2017-06-28T05:31:37.593Z,97.24
2017-06-28T05:32:18.039Z,97.42
2017-06-28T05:32:58.508Z,97.62
2017-06-28T05:33:38.991Z,97.24
2017-06-28T05:34:19.477Z,97.52
2017-06-28T05:34:59.938Z,97.42
2017-06-28T05:35:40.421Z,97.62
2017-06-28T05:36:20.857Z,97.24
2017-06-28T05:37:01.336Z,97.24
2017-06-28T05:37:41.806Z,97.14
2017-06-28T05:38:22.269Z,97.72
2017-06-28T05:39:02.736Z,97.33
2017-06-28T05:39:43.213Z,97.24
2017-06-28T05:41:40.829Z,98.19
2017-06-28T05:42:21.298Z,98.19
2017-06-28T05:43:01.786Z,97.62
2017-06-28T05:43:42.257Z,98
2017-06-28T05:44:22.734Z,97.33
2017-06-28T05:45:03.180Z,98
2017-06-28T05:45:43.631Z,97.62
2017-06-28T05:46:24.126Z,97.62
2017-06-28T05:48:36.943Z,98
2017-06-28T05:49:17.372Z,98.39
2017-06-28T05:49:57.883Z,97.33
2017-06-28T05:50:38.391Z,98.49
2017-06-28T05:51:18.854Z,97.33
2017-06-28T05:51:59.333Z,97.62
2017-06-28T05:52:39.801Z,97.42
2017-06-28T05:53:20.276Z,97.62
2017-06-28T05:54:00.750Z,97.14
2017-06-28T05:54:41.228Z,97.72
2017-06-28T05:56:38.880Z,98.29
2017-06-28T05:57:19.341Z,98
2017-06-28T05:57:59.890Z,97.28
2017-06-28T05:58:40.480Z,97.62
2017-06-28T05:59:20.977Z,97.09
2017-06-28T06:00:01.525Z,97.33
2017-06-28T06:00:41.999Z,97.28
2017-06-28T06:01:22.463Z,96.85
2017-06-28T06:02:02.931Z,97.04
2017-06-28T06:03:50.413Z,96.37
2017-06-28T06:04:30.878Z,96.75
2017-06-28T06:05:11.325Z,96.37
2017-06-28T06:05:51.776Z,95.98
2017-06-28T06:06:32.238Z,96.08
2017-06-28T06:07:12.683Z,95.89
2017-06-28T06:07:53.150Z,95.69
2017-06-28T06:08:33.618Z,95.02
2017-06-28T06:09:14.083Z,95.74
2017-06-28T06:09:54.545Z,94.92
2017-06-28T06:10:34.988Z,94.82
2017-06-28T06:11:15.503Z,95.36
2017-06-28T06:11:55.975Z,94.97
2017-06-28T06:12:36.453Z,94.59
2017-06-28T06:13:16.908Z,94.39
2017-06-28T06:13:57.354Z,94.97
2017-06-28T06:15:44.897Z,94.78
2017-06-28T06:19:35.262Z,93.48
2017-06-28T06:20:15.651Z,92.51
2017-06-28T06:20:56.111Z,92.61
2017-06-28T06:21:36.533Z,92.99
2017-06-28T06:22:17.010Z,92.51
2017-06-28T06:22:57.478Z,92.99
2017-06-28T06:23:37.915Z,92.71
2017-06-28T06:24:18.372Z,92.9
2017-06-28T06:24:58.834Z,92.71
2017-06-28T06:25:39.295Z,92.8
2017-06-28T06:26:19.749Z,93.19
2017-06-28T06:27:00.212Z,92.61
2017-06-28T06:28:52.831Z,92.99
2017-06-28T06:29:33.278Z,92.61
2017-06-28T06:30:13.758Z,92.32
2017-06-28T06:30:54.207Z,92.71
2017-06-28T06:31:35.548Z,92.99
2017-06-28T06:32:16.045Z,92.03
2017-06-28T06:32:56.506Z,91.93
2017-06-28T06:33:36.938Z,92.8
2017-06-28T06:34:17.376Z,92.9
2017-06-28T06:34:58.714Z,92.41
2017-06-28T06:35:39.152Z,92.8
2017-06-28T06:36:19.619Z,92.8
2017-06-28T06:37:00.113Z,92.51
2017-06-28T06:37:40.618Z,92.61
2017-06-28T06:38:21.085Z,92.32
2017-06-28T06:39:01.570Z,92.61
2017-06-28T06:39:42.010Z,92.61
2017-06-28T06:40:22.462Z,92.13
2017-06-28T06:41:02.898Z,92.51
2017-06-28T06:41:43.338Z,92.9
2017-06-28T06:42:23.846Z,92.32
2017-06-28T06:43:04.343Z,92.41
2017-06-28T06:43:44.852Z,92.13
2017-06-28T06:46:40.504Z,92.51
2017-06-28T06:47:20.921Z,92.22
2017-06-28T06:48:02.138Z,92.51
2017-06-28T06:49:50.028Z,92.03
2017-06-28T06:50:30.355Z,92.75
2017-06-28T06:51:10.765Z,92.46
2017-06-28T06:51:51.314Z,92.08
2017-06-28T06:52:32.280Z,92.08
2017-06-28T06:53:12.708Z,92.27
2017-06-28T06:53:53.114Z,92.27
2017-06-28T06:54:33.568Z,91.88
2017-06-28T06:55:14.031Z,92.65
2017-06-28T06:57:07.051Z,92.27
2017-06-28T06:57:47.445Z,92.27
2017-06-28T06:58:27.945Z,92.36
2017-06-28T06:59:08.350Z,91.69
2017-06-28T06:59:48.811Z,92.08
2017-06-28T07:01:46.707Z,91.78
2017-06-28T07:02:27.085Z,91.4
2017-06-28T07:03:07.507Z,91.69
2017-06-28T07:03:47.915Z,92.27
2017-06-28T07:04:28.425Z,92.65
2017-06-28T07:06:26.018Z,92.27
2017-06-28T07:07:06.494Z,91.74
2017-06-28T07:07:46.981Z,91.5
2017-06-28T07:09:34.889Z,91.74
2017-06-28T07:10:15.238Z,92.22
2017-06-28T07:12:08.218Z,91.54
2017-06-28T07:12:48.648Z,91.74
2017-06-28T07:13:29.160Z,90.77
2017-06-28T07:14:09.593Z,91.2
2017-06-28T07:14:50.143Z,90.53
2017-06-28T07:15:30.654Z,90.72
2017-06-28T07:16:13.235Z,89.85
2017-06-28T07:16:53.897Z,89.75
2017-06-28T07:17:36.166Z,89.51
2017-06-28T07:18:17.336Z,90.28
2017-06-28T07:18:58.607Z,88.83
2017-06-28T07:19:39.669Z,88.83
2017-06-28T07:21:26.975Z,88.68
2017-06-28T07:22:07.504Z,87.71
2017-06-28T07:22:47.938Z,87.62
2017-06-28T07:23:28.409Z,87.23
2017-06-28T07:24:08.929Z,88.1
2017-06-28T07:24:49.429Z,88.05
2017-06-28T07:25:29.958Z,87.18
2017-06-28T07:26:10.463Z,85.97
2017-06-28T07:26:50.947Z,86.2
2017-06-28T07:27:31.434Z,85.91
2017-06-28T07:29:49.324Z,84.46
2017-06-28T07:30:29.797Z,84.36
2017-06-28T07:31:10.340Z,84.66
2017-06-28T07:31:50.835Z,83.69
2017-06-28T07:32:31.323Z,84.75
2017-06-28T07:33:11.835Z,83.4
2017-06-28T07:33:52.305Z,83.59
2017-06-28T07:34:32.794Z,84.08
2017-06-28T07:35:13.298Z,83.88
2017-06-28T07:35:53.768Z,83.45
2017-06-28T07:36:34.232Z,84.94
2017-06-28T07:37:14.731Z,84.61
2017-06-28T07:37:55.240Z,84.52
2017-06-28T07:38:35.728Z,84.56
2017-06-28T07:39:16.231Z,83.69
2017-06-28T07:39:56.687Z,84.52
2017-06-28T07:40:37.173Z,85
2017-06-28T07:41:17.644Z,84.03
2017-06-28T07:41:58.212Z,85.77
2017-06-28T07:42:38.692Z,84.52
2017-06-28T07:43:19.185Z,84.47
2017-06-28T07:45:37.016Z,84.77
2017-06-28T07:46:17.507Z,84.38
2017-06-28T07:46:57.999Z,84.38
2017-06-28T07:47:38.551Z,85.93
2017-06-28T07:48:18.980Z,85.53
2017-06-28T07:48:59.458Z,85.05
2017-06-28T07:49:39.957Z,84.57
2017-06-28T07:50:20.442Z,84.28
2017-06-28T07:51:00.943Z,84.43
2017-06-28T07:51:41.423Z,84.72
2017-06-28T07:53:59.214Z,84.95
2017-06-28T07:54:39.681Z,83.7
2017-06-28T07:55:20.179Z,83.7
2017-06-28T07:56:00.654Z,84.57
2017-06-28T07:56:41.198Z,83.45
2017-06-28T07:57:21.687Z,84.03
2017-06-28T07:58:02.188Z,84.52
2017-06-28T07:58:42.836Z,82.23
2017-06-28T07:59:23.351Z,81.45
2017-06-28T08:00:03.894Z,78.83
2017-06-28T08:00:44.496Z,78.77
2017-06-28T08:01:25.086Z,78.58
2017-06-28T08:02:06.200Z,79.84
2017-06-28T08:02:46.731Z,78.38
2017-06-28T08:03:27.265Z,78.38
2017-06-28T08:04:07.721Z,77.94
2017-06-28T08:04:48.211Z,76.83
2017-06-28T08:05:28.689Z,77.96
2017-06-28T08:06:09.709Z,78.5
2017-06-28T08:07:57.206Z,80.69
2017-06-28T08:08:37.720Z,81.9
2017-06-28T08:09:18.179Z,80.61
2017-06-28T08:09:58.713Z,81.42
2017-06-28T08:10:39.228Z,82.83
2017-06-28T08:11:19.698Z,83.03
2017-06-28T08:12:00.286Z,82.64
2017-06-28T08:12:40.766Z,83.7
2017-06-28T08:13:21.241Z,82.64
2017-06-28T08:14:01.707Z,84.53
2017-06-28T08:14:42.173Z,84.72
2017-06-28T08:15:23.155Z,85.59
2017-06-28T08:16:03.682Z,85.11
2017-06-28T08:16:44.161Z,84.33
2017-06-28T08:17:24.632Z,84.24
2017-06-28T08:18:05.128Z,85.01
2017-06-28T08:18:45.595Z,85.3
2017-06-28T08:19:26.125Z,84.91
2017-06-28T08:20:06.618Z,85.26
2017-06-28T08:20:47.084Z,84
2017-06-28T08:21:27.517Z,83.81
2017-06-28T08:22:08.017Z,85.5
2017-06-28T08:22:48.518Z,86.96
2017-06-28T08:23:29.018Z,87.82
2017-06-28T08:24:09.459Z,88.5
2017-06-28T08:24:49.904Z,88.07
2017-06-28T08:25:30.390Z,89.13
2017-06-28T08:26:10.882Z,89.61
2017-06-28T08:28:08.542Z,89.9
2017-06-28T08:30:26.377Z,90.77
2017-06-28T08:31:06.826Z,90.92
2017-06-28T08:31:47.261Z,91.11
2017-06-28T08:33:45.059Z,90.19
2017-06-28T08:34:25.626Z,91.54
2017-06-28T08:35:06.066Z,90.67
2017-06-28T08:35:46.497Z,91.02
2017-06-28T08:36:26.942Z,90.72
2017-06-28T08:37:07.621Z,90.92
2017-06-28T08:37:48.157Z,91.11
2017-06-28T08:38:28.721Z,92.03
2017-06-28T08:39:09.704Z,92.65
2017-06-28T08:39:51.967Z,91.69
2017-06-28T08:40:33.107Z,91.5
2017-06-28T08:41:13.599Z,91.06
2017-06-28T08:41:54.792Z,90
2017-06-28T08:42:37.657Z,90.58
2017-06-28T08:43:18.683Z,91.4
2017-06-28T08:43:59.698Z,91.25
2017-06-28T08:46:12.919Z,88.79
2017-06-28T08:46:53.680Z,88.89
2017-06-28T08:47:34.980Z,87.29
2017-06-28T08:48:15.533Z,87.77
2017-06-28T08:48:56.056Z,87.96
2017-06-28T08:49:36.473Z,86.9
2017-06-28T08:50:16.913Z,87.04
2017-06-28T08:50:57.422Z,86.8
2017-06-28T08:51:37.919Z,87.33
2017-06-28T08:52:18.399Z,84.91
2017-06-28T08:52:58.877Z,85.35
2017-06-28T08:54:56.828Z,83.45
2017-06-28T08:55:38.830Z,83.88
2017-06-28T08:56:19.637Z,82.91
2017-06-28T08:57:00.326Z,81.79
2017-06-28T08:57:40.837Z,80.79
2017-06-28T08:58:21.293Z,81.85
2017-06-28T08:59:01.799Z,82.14
2017-06-28T08:59:42.457Z,80.73
2017-06-28T09:00:23.046Z,80.28
2017-06-28T09:01:03.492Z,78.5
2017-06-28T09:01:44.166Z,80.87
2017-06-28T09:02:25.550Z,80.09
2017-06-28T09:03:06.749Z,79.17
2017-06-28T09:03:47.205Z,79.76
2017-06-28T09:04:27.995Z,79.91
2017-06-28T09:05:08.414Z,80.88
2017-06-28T09:05:49.040Z,81.27
2017-06-28T09:06:29.721Z,80.92
2017-06-28T09:08:47.648Z,80.79
2017-06-28T09:09:28.145Z,81.3
2017-06-28T09:10:08.620Z,80.09
2017-06-28T09:10:49.116Z,78.69
2017-06-28T09:11:29.602Z,79.17
2017-06-28T09:12:10.110Z,78.75
2017-06-28T09:12:50.621Z,80.44
2017-06-28T09:13:31.090Z,78.41
2017-06-28T09:14:11.587Z,79.76
2017-06-28T09:14:52.059Z,78.54
2017-06-28T09:16:39.547Z,77.37
2017-06-28T09:17:20.011Z,76.54
2017-06-28T09:18:00.507Z,78.13
2017-06-28T09:18:41.012Z,76
2017-06-28T09:19:21.506Z,75.9
2017-06-28T09:20:01.968Z,76.29
2017-06-28T09:20:42.439Z,74.91
2017-06-28T09:21:23.581Z,73.97
2017-06-28T09:22:04.056Z,72.45
2017-06-28T09:22:44.584Z,71.42
2017-06-28T09:23:25.075Z,69.77
2017-06-28T09:25:42.960Z,68.02
2017-06-28T09:26:23.412Z,67.54
2017-06-28T09:27:03.977Z,68.64
2017-06-28T09:27:44.492Z,67.54
2017-06-28T09:28:25.085Z,68.41
2017-06-28T09:29:05.628Z,67.63
2017-06-28T09:29:46.093Z,67.73
2017-06-28T09:30:26.813Z,69.15
2017-06-28T09:31:07.467Z,68.41
2017-06-28T09:31:48.068Z,68.05
2017-06-28T09:32:28.487Z,67.76
2017-06-28T09:34:26.160Z,70.73
2017-06-28T09:35:06.646Z,70.67
2017-06-28T09:35:47.155Z,70.54
2017-06-28T09:36:27.664Z,69.86
2017-06-28T09:37:08.126Z,70.06
2017-06-28T09:37:48.566Z,70.12
2017-06-28T09:38:29.051Z,70.57
2017-06-28T09:39:09.497Z,71.25
2017-06-28T09:39:50.688Z,70.7
2017-06-28T09:40:31.198Z,71.34
2017-06-28T09:41:11.707Z,71.38
2017-06-28T09:41:52.197Z,70.51
2017-06-28T09:42:32.692Z,69.22
2017-06-28T09:43:13.186Z,67.28
2017-06-28T09:43:54.627Z,64.95
2017-06-28T09:44:35.138Z,63.55
2017-06-28T09:45:15.655Z,61.34
2017-06-28T09:45:56.134Z,61.21
2017-06-28T09:46:36.680Z,58.66
2017-06-28T09:47:17.160Z,56.35
2017-06-28T09:47:57.658Z,54.17
2017-06-28T09:48:38.190Z,53.23
2017-06-28T09:49:18.679Z,54.22
2017-06-28T09:49:59.174Z,54.95
2017-06-28T09:50:39.642Z,56.36
2017-06-28T09:51:20.124Z,56.07
2017-06-28T09:53:37.947Z,58.82
2017-06-28T09:54:18.468Z,60.54
2017-06-28T09:54:58.984Z,62.07
2017-06-28T09:55:39.481Z,61.8
2017-06-28T09:56:20.018Z,60.93
2017-06-28T09:57:10.496Z,61.19